Snake River Valley :: SLC-JSB1

liberation: 2021-10-22  08:30     latitude: 40.640333     longitude: -111.950333 32 birds
# LOFT PRING MILES ARRIVAL SPEED ToWin
1 Acorn Loft AU21-ARPU-1736 195.851 2021-10-22 11:56:06.014 1672.478 00:00:00
2 Acorn Loft AU21-ARPU-1732 195.851 2021-10-22 11:56:42.430 1667.567 00:00:36
3 M&T Wall AU21-SRV-0009 206.75 2021-10-22 12:30:34.932 1512.499 00:23:01
4 M&T Wall AU21-SRV-0036 206.75 2021-10-22 12:30:37.060 1512.276 00:23:03
5 M&T Wall AU21-SRV-0007 206.75 2021-10-22 12:30:37.439 1512.236 00:23:03
6 M&T Wall AU21-SRV-0378 206.75 2021-10-22 12:30:37.838 1512.194 00:23:04
7 M&T Wall AU21-SRV-0369 206.75 2021-10-22 12:30:37.960 1512.181 00:23:04
8 M&T Wall AU21-SRV-0018 206.75 2021-10-22 12:30:38.348 1512.141 00:23:04
9 M&T Wall AU21-SRV-0022 206.75 2021-10-22 12:30:39.854 1511.983 00:23:06
10 M&T Wall AU21-SRV-0031 206.75 2021-10-22 12:30:40.931 1511.870 00:23:07
11 M&T Wall AU21-SRV-0373 206.75 2021-10-22 12:30:42.967 1511.657 00:23:09
12 M&T Wall AU21-SRV-0010 206.75 2021-10-22 12:30:44.079 1511.541 00:23:10
13 M&T Wall AU21-SRV-0029 206.75 2021-10-22 12:30:45.049 1511.439 00:23:11
14 AU21-SRV-0209 212.888 2021-10-22 12:52:09.202 1429.250 00:38:07
15 AU21-SRV-0240 212.888 2021-10-22 12:52:13.656 1428.845 00:38:12
16 AU21-SRV-0207 212.888 2021-10-22 12:52:15.344 1428.692 00:38:14
17 AU21-SRV-0234 212.888 2021-10-22 12:52:16.379 1428.598 00:38:15
18 AU21-SRV-0242 212.888 2021-10-22 12:52:19.198 1428.342 00:38:17
19 AU21-SRV-0210 212.888 2021-10-22 12:52:22.153 1428.074 00:38:20
20 AU21-SRV-0201 212.888 2021-10-22 12:52:26.898 1427.643 00:38:25
21 AU21-SRV-0245 212.888 2021-10-22 12:52:34.787 1426.929 00:38:33
22 AU21-SRV-0208 212.888 2021-10-22 12:53:48.848 1420.252 00:39:47
23 AU21-SRV-0225 212.888 2021-10-22 12:53:50.393 1420.114 00:39:49
24 AU21-SRV-0213 212.888 2021-10-22 12:56:32.783 1405.694 00:42:31
25 AU21-SRV-0246 212.888 2021-10-22 12:57:19.589 1401.592 00:43:18
26 AU21-SRV-0241 212.888 2021-10-22 12:58:12.459 1396.987 00:44:11
27 Acorn Loft AU21-ARPU-1710 195.851 2021-10-22 12:42:47.313 1363.583 00:46:41
28 Acorn Loft AU21-ARPU-1712 195.851 2021-10-22 12:53:57.215 1305.904 00:57:51
29 AU21-SRV-0205 212.888 2021-10-22 13:17:08.720 1304.853 01:03:07
30 AU21-SRV-0247 212.888 2021-10-22 16:22:24.468 793.134 04:08:23
AU19-ARPU-1551 0 0000-00-00 00:00:00.000 0.000 00:00:00
AU21-SRV-0218 0 0000-00-00 00:00:00.000 0.000 00:00:00